sensor_id;sensor_type;location;lat;lon;timestamp;P1;durP1;ratioP1;P2;durP2;ratioP2
70800;SDS011;59616;52.170;5.386;2022-07-17T00:01:12;8.63;;;2.55;;
70800;SDS011;59616;52.170;5.386;2022-07-17T00:03:40;7.20;;;2.70;;
70800;SDS011;59616;52.170;5.386;2022-07-17T00:06:07;9.45;;;2.58;;
70800;SDS011;59616;52.170;5.386;2022-07-17T00:08:34;7.93;;;2.22;;
70800;SDS011;59616;52.170;5.386;2022-07-17T00:11:01;8.73;;;2.50;;
70800;SDS011;59616;52.170;5.386;2022-07-17T00:13:28;6.72;;;2.13;;
70800;SDS011;59616;52.170;5.386;2022-07-17T00:15:55;7.32;;;2.55;;
70800;SDS011;59616;52.170;5.386;2022-07-17T00:18:22;8.65;;;2.45;;
70800;SDS011;59616;52.170;5.386;2022-07-17T00:20:49;6.43;;;2.53;;
70800;SDS011;59616;52.170;5.386;2022-07-17T00:23:16;7.50;;;2.47;;
70800;SDS011;59616;52.170;5.386;2022-07-17T00:25:43;10.32;;;2.70;;
70800;SDS011;59616;52.170;5.386;2022-07-17T00:28:10;6.97;;;2.30;;
70800;SDS011;59616;52.170;5.386;2022-07-17T00:30:37;6.88;;;2.30;;
70800;SDS011;59616;52.170;5.386;2022-07-17T00:33:04;8.65;;;2.30;;
70800;SDS011;59616;52.170;5.386;2022-07-17T00:35:31;5.30;;;1.80;;
70800;SDS011;59616;52.170;5.386;2022-07-17T00:37:58;12.35;;;2.90;;
70800;SDS011;59616;52.170;5.386;2022-07-17T00:40:25;6.60;;;1.98;;
70800;SDS011;59616;52.170;5.386;2022-07-17T00:42:52;8.02;;;2.40;;
70800;SDS011;59616;52.170;5.386;2022-07-17T00:45:19;7.13;;;2.30;;
70800;SDS011;59616;52.170;5.386;2022-07-17T00:48:09;7.00;;;2.58;;
70800;SDS011;59616;52.170;5.386;2022-07-17T00:50:38;7.53;;;2.42;;
70800;SDS011;59616;52.170;5.386;2022-07-17T00:53:07;7.40;;;2.70;;
70800;SDS011;59616;52.170;5.386;2022-07-17T00:55:34;9.13;;;2.67;;
70800;SDS011;59616;52.170;5.386;2022-07-17T00:58:11;7.93;;;2.40;;
70800;SDS011;59616;52.170;5.386;2022-07-17T01:00:42;5.78;;;2.13;;
70800;SDS011;59616;52.170;5.386;2022-07-17T01:03:09;7.10;;;2.20;;
70800;SDS011;59616;52.170;5.386;2022-07-17T01:05:36;7.60;;;2.10;;
70800;SDS011;59616;52.170;5.386;2022-07-17T01:08:03;5.10;;;1.90;;
70800;SDS011;59616;52.170;5.386;2022-07-17T01:10:30;6.07;;;2.20;;
70800;SDS011;59616;52.170;5.386;2022-07-17T01:12:57;7.68;;;1.90;;
70800;SDS011;59616;52.170;5.386;2022-07-17T01:15:23;8.23;;;2.35;;
70800;SDS011;59616;52.170;5.386;2022-07-17T01:17:50;4.50;;;1.75;;
70800;SDS011;59616;52.170;5.386;2022-07-17T01:20:18;8.35;;;2.00;;
70800;SDS011;59616;52.170;5.386;2022-07-17T01:22:46;5.78;;;1.70;;
70800;SDS011;59616;52.170;5.386;2022-07-17T01:25:16;8.38;;;1.98;;
70800;SDS011;59616;52.170;5.386;2022-07-17T01:27:45;6.78;;;1.80;;
70800;SDS011;59616;52.170;5.386;2022-07-17T01:30:12;5.88;;;1.70;;
70800;SDS011;59616;52.170;5.386;2022-07-17T01:32:39;6.57;;;1.80;;
70800;SDS011;59616;52.170;5.386;2022-07-17T01:35:08;6.00;;;2.00;;
70800;SDS011;59616;52.170;5.386;2022-07-17T01:37:37;7.25;;;1.88;;
70800;SDS011;59616;52.170;5.386;2022-07-17T01:40:05;8.55;;;1.92;;
70800;SDS011;59616;52.170;5.386;2022-07-17T01:42:33;6.43;;;2.00;;
70800;SDS011;59616;52.170;5.386;2022-07-17T01:45:00;5.30;;;1.67;;
70800;SDS011;59616;52.170;5.386;2022-07-17T01:47:27;6.45;;;1.80;;
70800;SDS011;59616;52.170;5.386;2022-07-17T01:49:55;5.38;;;1.88;;
70800;SDS011;59616;52.170;5.386;2022-07-17T01:52:24;6.93;;;1.90;;
70800;SDS011;59616;52.170;5.386;2022-07-17T01:54:52;5.88;;;1.63;;
70800;SDS011;59616;52.170;5.386;2022-07-17T01:57:19;6.85;;;2.00;;
70800;SDS011;59616;52.170;5.386;2022-07-17T01:59:47;6.72;;;1.95;;
70800;SDS011;59616;52.170;5.386;2022-07-17T02:02:14;6.72;;;1.75;;
70800;SDS011;59616;52.170;5.386;2022-07-17T02:04:44;5.85;;;1.88;;
70800;SDS011;59616;52.170;5.386;2022-07-17T02:07:12;7.03;;;1.70;;
70800;SDS011;59616;52.170;5.386;2022-07-17T02:09:39;6.38;;;1.85;;
70800;SDS011;59616;52.170;5.386;2022-07-17T02:12:06;7.60;;;1.90;;
70800;SDS011;59616;52.170;5.386;2022-07-17T02:14:33;6.28;;;1.70;;
70800;SDS011;59616;52.170;5.386;2022-07-17T02:17:01;7.32;;;2.05;;
70800;SDS011;59616;52.170;5.386;2022-07-17T02:19:28;5.95;;;2.00;;
70800;SDS011;59616;52.170;5.386;2022-07-17T02:21:55;6.85;;;2.15;;
70800;SDS011;59616;52.170;5.386;2022-07-17T02:24:22;8.30;;;2.33;;
70800;SDS011;59616;52.170;5.386;2022-07-17T02:26:48;6.30;;;2.30;;
70800;SDS011;59616;52.170;5.386;2022-07-17T02:29:15;5.68;;;1.90;;
70800;SDS011;59616;52.170;5.386;2022-07-17T02:31:42;8.30;;;2.15;;
70800;SDS011;59616;52.170;5.386;2022-07-17T02:34:09;7.80;;;2.33;;
70800;SDS011;59616;52.170;5.386;2022-07-17T02:36:37;6.47;;;2.17;;
70800;SDS011;59616;52.170;5.386;2022-07-17T02:39:03;7.20;;;1.95;;
70800;SDS011;59616;52.170;5.386;2022-07-17T02:41:30;5.68;;;2.05;;
70800;SDS011;59616;52.170;5.386;2022-07-17T02:44:00;8.73;;;2.05;;
70800;SDS011;59616;52.170;5.386;2022-07-17T02:46:27;7.35;;;2.20;;
70800;SDS011;59616;52.170;5.386;2022-07-17T02:48:54;8.70;;;2.20;;
70800;SDS011;59616;52.170;5.386;2022-07-17T02:51:21;6.03;;;2.03;;
70800;SDS011;59616;52.170;5.386;2022-07-17T02:53:47;6.40;;;2.05;;
70800;SDS011;59616;52.170;5.386;2022-07-17T02:56:14;6.40;;;1.80;;
70800;SDS011;59616;52.170;5.386;2022-07-17T03:01:07;10.43;;;2.40;;
70800;SDS011;59616;52.170;5.386;2022-07-17T03:03:34;5.47;;;1.90;;
70800;SDS011;59616;52.170;5.386;2022-07-17T03:06:01;6.95;;;2.45;;
70800;SDS011;59616;52.170;5.386;2022-07-17T03:08:28;9.07;;;2.00;;
70800;SDS011;59616;52.170;5.386;2022-07-17T03:13:21;6.47;;;1.95;;
70800;SDS011;59616;52.170;5.386;2022-07-17T03:15:48;6.93;;;1.90;;
70800;SDS011;59616;52.170;5.386;2022-07-17T03:18:15;5.45;;;1.70;;
70800;SDS011;59616;52.170;5.386;2022-07-17T03:23:08;7.50;;;1.88;;
70800;SDS011;59616;52.170;5.386;2022-07-17T03:25:35;8.15;;;2.03;;
70800;SDS011;59616;52.170;5.386;2022-07-17T03:28:02;8.52;;;1.88;;
70800;SDS011;59616;52.170;5.386;2022-07-17T03:30:29;6.70;;;2.03;;
70800;SDS011;59616;52.170;5.386;2022-07-17T03:32:56;6.43;;;2.05;;
70800;SDS011;59616;52.170;5.386;2022-07-17T03:35:23;6.60;;;2.10;;
70800;SDS011;59616;52.170;5.386;2022-07-17T03:37:49;7.68;;;1.95;;
70800;SDS011;59616;52.170;5.386;2022-07-17T03:42:43;7.82;;;1.80;;
70800;SDS011;59616;52.170;5.386;2022-07-17T03:45:12;6.22;;;2.00;;
70800;SDS011;59616;52.170;5.386;2022-07-17T03:50:05;7.88;;;1.98;;
70800;SDS011;59616;52.170;5.386;2022-07-17T03:52:32;7.75;;;1.88;;
70800;SDS011;59616;52.170;5.386;2022-07-17T03:54:59;6.57;;;2.10;;
70800;SDS011;59616;52.170;5.386;2022-07-17T03:57:26;8.25;;;2.05;;
70800;SDS011;59616;52.170;5.386;2022-07-17T03:59:52;7.95;;;2.08;;
70800;SDS011;59616;52.170;5.386;2022-07-17T04:02:19;6.95;;;2.00;;
70800;SDS011;59616;52.170;5.386;2022-07-17T04:04:46;7.55;;;2.40;;
70800;SDS011;59616;52.170;5.386;2022-07-17T04:09:56;6.03;;;1.90;;
70800;SDS011;59616;52.170;5.386;2022-07-17T04:12:25;7.97;;;2.10;;
70800;SDS011;59616;52.170;5.386;2022-07-17T04:14:52;7.18;;;2.22;;
70800;SDS011;59616;52.170;5.386;2022-07-17T04:17:20;7.68;;;2.10;;
70800;SDS011;59616;52.170;5.386;2022-07-17T04:19:47;5.82;;;2.00;;
70800;SDS011;59616;52.170;5.386;2022-07-17T04:22:14;5.22;;;2.25;;
70800;SDS011;59616;52.170;5.386;2022-07-17T04:24:41;7.80;;;2.08;;
70800;SDS011;59616;52.170;5.386;2022-07-17T04:27:08;6.55;;;2.20;;
70800;SDS011;59616;52.170;5.386;2022-07-17T04:29:35;6.20;;;2.08;;
70800;SDS011;59616;52.170;5.386;2022-07-17T04:32:02;7.88;;;2.20;;
70800;SDS011;59616;52.170;5.386;2022-07-17T04:34:30;6.80;;;2.20;;
70800;SDS011;59616;52.170;5.386;2022-07-17T04:36:59;7.63;;;2.40;;
70800;SDS011;59616;52.170;5.386;2022-07-17T04:39:27;8.70;;;2.78;;
70800;SDS011;59616;52.170;5.386;2022-07-17T04:41:53;9.77;;;2.22;;
70800;SDS011;59616;52.170;5.386;2022-07-17T04:44:20;6.18;;;1.92;;
70800;SDS011;59616;52.170;5.386;2022-07-17T04:46:47;6.22;;;1.80;;
70800;SDS011;59616;52.170;5.386;2022-07-17T04:49:14;6.57;;;1.98;;
70800;SDS011;59616;52.170;5.386;2022-07-17T04:51:41;7.43;;;2.45;;
70800;SDS011;59616;52.170;5.386;2022-07-17T04:54:07;6.93;;;2.10;;
70800;SDS011;59616;52.170;5.386;2022-07-17T04:56:34;7.88;;;2.28;;
70800;SDS011;59616;52.170;5.386;2022-07-17T04:59:01;6.60;;;2.10;;
70800;SDS011;59616;52.170;5.386;2022-07-17T05:01:28;7.03;;;2.33;;
70800;SDS011;59616;52.170;5.386;2022-07-17T05:03:56;8.18;;;2.38;;
70800;SDS011;59616;52.170;5.386;2022-07-17T05:06:22;8.18;;;2.40;;
70800;SDS011;59616;52.170;5.386;2022-07-17T05:08:49;8.77;;;2.72;;
70800;SDS011;59616;52.170;5.386;2022-07-17T05:13:42;7.57;;;2.30;;
70800;SDS011;59616;52.170;5.386;2022-07-17T05:16:09;9.63;;;2.42;;
70800;SDS011;59616;52.170;5.386;2022-07-17T05:18:36;7.15;;;2.40;;
70800;SDS011;59616;52.170;5.386;2022-07-17T05:21:03;7.20;;;2.38;;
70800;SDS011;59616;52.170;5.386;2022-07-17T05:23:30;7.40;;;2.10;;
70800;SDS011;59616;52.170;5.386;2022-07-17T05:25:57;9.13;;;2.30;;
70800;SDS011;59616;52.170;5.386;2022-07-17T05:28:23;6.35;;;2.50;;
70800;SDS011;59616;52.170;5.386;2022-07-17T05:33:17;8.05;;;2.00;;
70800;SDS011;59616;52.170;5.386;2022-07-17T05:35:44;8.75;;;2.30;;
70800;SDS011;59616;52.170;5.386;2022-07-17T05:38:11;6.57;;;2.17;;
70800;SDS011;59616;52.170;5.386;2022-07-17T05:40:37;8.60;;;2.35;;
70800;SDS011;59616;52.170;5.386;2022-07-17T05:43:04;8.45;;;2.35;;
70800;SDS011;59616;52.170;5.386;2022-07-17T05:45:31;7.35;;;2.22;;
70800;SDS011;59616;52.170;5.386;2022-07-17T05:47:58;9.80;;;2.28;;
70800;SDS011;59616;52.170;5.386;2022-07-17T05:50:25;8.35;;;2.10;;
70800;SDS011;59616;52.170;5.386;2022-07-17T05:52:51;5.68;;;2.10;;
70800;SDS011;59616;52.170;5.386;2022-07-17T05:55:18;7.40;;;2.17;;
70800;SDS011;59616;52.170;5.386;2022-07-17T05:57:46;8.32;;;2.47;;
70800;SDS011;59616;52.170;5.386;2022-07-17T06:00:12;10.45;;;2.47;;
70800;SDS011;59616;52.170;5.386;2022-07-17T06:02:40;6.85;;;2.33;;
70800;SDS011;59616;52.170;5.386;2022-07-17T06:05:07;9.52;;;2.30;;
70800;SDS011;59616;52.170;5.386;2022-07-17T06:07:34;8.45;;;2.25;;
70800;SDS011;59616;52.170;5.386;2022-07-17T06:10:02;4.68;;;1.85;;
70800;SDS011;59616;52.170;5.386;2022-07-17T06:12:29;9.95;;;2.28;;
70800;SDS011;59616;52.170;5.386;2022-07-17T06:14:56;5.88;;;2.00;;
70800;SDS011;59616;52.170;5.386;2022-07-17T06:17:23;7.38;;;1.98;;
70800;SDS011;59616;52.170;5.386;2022-07-17T06:19:49;8.93;;;2.25;;
70800;SDS011;59616;52.170;5.386;2022-07-17T06:22:18;8.75;;;2.20;;
70800;SDS011;59616;52.170;5.386;2022-07-17T06:24:45;5.38;;;1.80;;
70800;SDS011;59616;52.170;5.386;2022-07-17T06:27:13;7.13;;;1.75;;
70800;SDS011;59616;52.170;5.386;2022-07-17T06:29:40;8.88;;;2.17;;
70800;SDS011;59616;52.170;5.386;2022-07-17T06:32:16;11.65;;;2.22;;
70800;SDS011;59616;52.170;5.386;2022-07-17T06:34:43;9.18;;;1.90;;
70800;SDS011;59616;52.170;5.386;2022-07-17T06:37:10;6.90;;;2.40;;
70800;SDS011;59616;52.170;5.386;2022-07-17T06:39:36;6.15;;;2.03;;
70800;SDS011;59616;52.170;5.386;2022-07-17T06:42:03;8.25;;;2.15;;
70800;SDS011;59616;52.170;5.386;2022-07-17T06:44:31;7.95;;;2.00;;
70800;SDS011;59616;52.170;5.386;2022-07-17T06:46:57;5.68;;;1.70;;
70800;SDS011;59616;52.170;5.386;2022-07-17T06:49:24;5.30;;;1.98;;
70800;SDS011;59616;52.170;5.386;2022-07-17T06:51:51;5.60;;;1.83;;
70800;SDS011;59616;52.170;5.386;2022-07-17T06:54:18;6.70;;;1.73;;
70800;SDS011;59616;52.170;5.386;2022-07-17T06:56:44;7.82;;;1.85;;
70800;SDS011;59616;52.170;5.386;2022-07-17T06:59:11;6.43;;;1.50;;
70800;SDS011;59616;52.170;5.386;2022-07-17T07:01:38;7.68;;;2.10;;
70800;SDS011;59616;52.170;5.386;2022-07-17T07:04:07;6.35;;;1.50;;
70800;SDS011;59616;52.170;5.386;2022-07-17T07:06:34;10.60;;;1.58;;
70800;SDS011;59616;52.170;5.386;2022-07-17T07:09:00;10.98;;;1.55;;
70800;SDS011;59616;52.170;5.386;2022-07-17T07:11:27;7.40;;;1.88;;
70800;SDS011;59616;52.170;5.386;2022-07-17T07:13:55;4.35;;;1.25;;
70800;SDS011;59616;52.170;5.386;2022-07-17T07:16:21;4.32;;;1.40;;
70800;SDS011;59616;52.170;5.386;2022-07-17T07:18:48;8.23;;;1.50;;
70800;SDS011;59616;52.170;5.386;2022-07-17T07:21:15;5.55;;;1.45;;
70800;SDS011;59616;52.170;5.386;2022-07-17T07:23:45;6.00;;;1.40;;
70800;SDS011;59616;52.170;5.386;2022-07-17T07:26:11;7.53;;;1.52;;
70800;SDS011;59616;52.170;5.386;2022-07-17T07:28:38;5.07;;;1.30;;
70800;SDS011;59616;52.170;5.386;2022-07-17T07:31:05;8.93;;;1.58;;
70800;SDS011;59616;52.170;5.386;2022-07-17T07:33:32;5.80;;;1.70;;
70800;SDS011;59616;52.170;5.386;2022-07-17T07:35:59;3.60;;;1.20;;
70800;SDS011;59616;52.170;5.386;2022-07-17T07:38:25;4.90;;;1.30;;
70800;SDS011;59616;52.170;5.386;2022-07-17T07:40:52;6.78;;;1.30;;
70800;SDS011;59616;52.170;5.386;2022-07-17T07:43:19;5.85;;;1.15;;
70800;SDS011;59616;52.170;5.386;2022-07-17T07:45:45;8.38;;;1.42;;
70800;SDS011;59616;52.170;5.386;2022-07-17T07:48:12;6.57;;;1.27;;
70800;SDS011;59616;52.170;5.386;2022-07-17T07:50:39;5.25;;;1.23;;
70800;SDS011;59616;52.170;5.386;2022-07-17T07:53:06;7.65;;;1.27;;
70800;SDS011;59616;52.170;5.386;2022-07-17T07:55:33;4.65;;;1.30;;
70800;SDS011;59616;52.170;5.386;2022-07-17T07:58:04;11.93;;;1.50;;
70800;SDS011;59616;52.170;5.386;2022-07-17T08:00:33;5.30;;;1.30;;
70800;SDS011;59616;52.170;5.386;2022-07-17T08:03:01;6.90;;;1.42;;
70800;SDS011;59616;52.170;5.386;2022-07-17T08:05:29;2.78;;;1.00;;
70800;SDS011;59616;52.170;5.386;2022-07-17T08:07:56;6.88;;;1.45;;
70800;SDS011;59616;52.170;5.386;2022-07-17T08:10:23;7.22;;;1.40;;
70800;SDS011;59616;52.170;5.386;2022-07-17T08:12:50;7.60;;;1.48;;
70800;SDS011;59616;52.170;5.386;2022-07-17T08:15:18;8.70;;;1.40;;
70800;SDS011;59616;52.170;5.386;2022-07-17T08:17:47;8.18;;;1.50;;
70800;SDS011;59616;52.170;5.386;2022-07-17T08:20:15;6.53;;;1.30;;
70800;SDS011;59616;52.170;5.386;2022-07-17T08:22:43;4.88;;;1.20;;
70800;SDS011;59616;52.170;5.386;2022-07-17T08:25:31;5.60;;;1.13;;
70800;SDS011;59616;52.170;5.386;2022-07-17T08:28:00;3.03;;;1.17;;
70800;SDS011;59616;52.170;5.386;2022-07-17T08:30:27;6.85;;;1.50;;
70800;SDS011;59616;52.170;5.386;2022-07-17T08:32:53;4.65;;;1.15;;
70800;SDS011;59616;52.170;5.386;2022-07-17T08:35:20;4.60;;;1.20;;
70800;SDS011;59616;52.170;5.386;2022-07-17T08:37:50;6.63;;;1.33;;
70800;SDS011;59616;52.170;5.386;2022-07-17T08:40:19;4.75;;;1.23;;
70800;SDS011;59616;52.170;5.386;2022-07-17T08:42:48;3.72;;;1.10;;
70800;SDS011;59616;52.170;5.386;2022-07-17T08:45:16;6.82;;;1.35;;
70800;SDS011;59616;52.170;5.386;2022-07-17T08:47:43;5.30;;;1.38;;
70800;SDS011;59616;52.170;5.386;2022-07-17T08:50:10;5.85;;;1.38;;
70800;SDS011;59616;52.170;5.386;2022-07-17T08:52:38;7.95;;;1.13;;
70800;SDS011;59616;52.170;5.386;2022-07-17T08:55:10;5.63;;;1.17;;
70800;SDS011;59616;52.170;5.386;2022-07-17T08:57:39;4.20;;;0.90;;
70800;SDS011;59616;52.170;5.386;2022-07-17T09:00:15;3.67;;;1.05;;
70800;SDS011;59616;52.170;5.386;2022-07-17T09:02:55;4.40;;;1.10;;
70800;SDS011;59616;52.170;5.386;2022-07-17T09:05:27;3.40;;;0.90;;
70800;SDS011;59616;52.170;5.386;2022-07-17T09:07:56;5.97;;;1.27;;
70800;SDS011;59616;52.170;5.386;2022-07-17T09:10:33;5.82;;;1.17;;
70800;SDS011;59616;52.170;5.386;2022-07-17T09:13:16;4.55;;;1.15;;
70800;SDS011;59616;52.170;5.386;2022-07-17T09:15:58;7.50;;;1.48;;
70800;SDS011;59616;52.170;5.386;2022-07-17T09:18:50;2.22;;;1.20;;
70800;SDS011;59616;52.170;5.386;2022-07-17T09:21:23;5.40;;;1.20;;
70800;SDS011;59616;52.170;5.386;2022-07-17T09:24:00;5.35;;;1.25;;
70800;SDS011;59616;52.170;5.386;2022-07-17T09:26:34;4.15;;;1.40;;
70800;SDS011;59616;52.170;5.386;2022-07-17T09:29:09;5.20;;;1.20;;
70800;SDS011;59616;52.170;5.386;2022-07-17T09:31:38;7.82;;;1.38;;
70800;SDS011;59616;52.170;5.386;2022-07-17T09:34:05;7.68;;;1.30;;
70800;SDS011;59616;52.170;5.386;2022-07-17T09:36:42;8.50;;;1.58;;
70800;SDS011;59616;52.170;5.386;2022-07-17T09:39:08;5.20;;;1.23;;
70800;SDS011;59616;52.170;5.386;2022-07-17T09:41:35;2.80;;;1.33;;
70800;SDS011;59616;52.170;5.386;2022-07-17T09:44:03;5.68;;;1.30;;
70800;SDS011;59616;52.170;5.386;2022-07-17T09:46:33;5.20;;;1.42;;
70800;SDS011;59616;52.170;5.386;2022-07-17T09:49:03;5.25;;;1.25;;
70800;SDS011;59616;52.170;5.386;2022-07-17T09:51:34;5.47;;;1.20;;
70800;SDS011;59616;52.170;5.386;2022-07-17T09:54:04;5.85;;;1.13;;
70800;SDS011;59616;52.170;5.386;2022-07-17T09:56:34;5.57;;;1.27;;
70800;SDS011;59616;52.170;5.386;2022-07-17T09:59:04;5.25;;;1.40;;
70800;SDS011;59616;52.170;5.386;2022-07-17T10:01:38;3.95;;;1.15;;
70800;SDS011;59616;52.170;5.386;2022-07-17T10:04:08;5.97;;;1.40;;
70800;SDS011;59616;52.170;5.386;2022-07-17T10:06:36;4.40;;;1.23;;
70800;SDS011;59616;52.170;5.386;2022-07-17T10:09:04;4.32;;;1.30;;
70800;SDS011;59616;52.170;5.386;2022-07-17T10:11:33;3.22;;;1.10;;
70800;SDS011;59616;52.170;5.386;2022-07-17T10:14:13;5.70;;;1.80;;
70800;SDS011;59616;52.170;5.386;2022-07-17T10:16:41;3.92;;;1.20;;
70800;SDS011;59616;52.170;5.386;2022-07-17T10:19:21;7.82;;;1.40;;
70800;SDS011;59616;52.170;5.386;2022-07-17T10:21:56;6.07;;;1.30;;
70800;SDS011;59616;52.170;5.386;2022-07-17T10:24:30;5.15;;;1.13;;
70800;SDS011;59616;52.170;5.386;2022-07-17T10:26:57;3.92;;;1.10;;
70800;SDS011;59616;52.170;5.386;2022-07-17T10:31:53;4.35;;;1.13;;
70800;SDS011;59616;52.170;5.386;2022-07-17T10:37:27;5.00;;;1.30;;
70800;SDS011;59616;52.170;5.386;2022-07-17T10:40:05;4.78;;;1.40;;
70800;SDS011;59616;52.170;5.386;2022-07-17T10:45:35;5.82;;;1.50;;
70800;SDS011;59616;52.170;5.386;2022-07-17T10:50:41;3.75;;;1.33;;
70800;SDS011;59616;52.170;5.386;2022-07-17T10:55:57;5.32;;;1.60;;
70800;SDS011;59616;52.170;5.386;2022-07-17T10:58:33;5.07;;;1.50;;
70800;SDS011;59616;52.170;5.386;2022-07-17T11:01:12;7.45;;;1.83;;
70800;SDS011;59616;52.170;5.386;2022-07-17T11:03:42;5.78;;;1.40;;
70800;SDS011;59616;52.170;5.386;2022-07-17T11:06:15;5.72;;;1.50;;
70800;SDS011;59616;52.170;5.386;2022-07-17T11:08:49;6.03;;;1.50;;
70800;SDS011;59616;52.170;5.386;2022-07-17T11:11:18;4.70;;;1.50;;
70800;SDS011;59616;52.170;5.386;2022-07-17T11:13:55;5.10;;;1.40;;
70800;SDS011;59616;52.170;5.386;2022-07-17T11:16:59;6.88;;;1.50;;
70800;SDS011;59616;52.170;5.386;2022-07-17T11:22:11;7.35;;;1.52;;
70800;SDS011;59616;52.170;5.386;2022-07-17T11:24:42;5.88;;;1.50;;
70800;SDS011;59616;52.170;5.386;2022-07-17T11:27:17;5.50;;;1.70;;
70800;SDS011;59616;52.170;5.386;2022-07-17T11:29:57;5.72;;;1.60;;
70800;SDS011;59616;52.170;5.386;2022-07-17T11:32:31;5.47;;;1.48;;
70800;SDS011;59616;52.170;5.386;2022-07-17T11:35:02;4.38;;;1.52;;
70800;SDS011;59616;52.170;5.386;2022-07-17T11:38:00;6.53;;;1.90;;
70800;SDS011;59616;52.170;5.386;2022-07-17T11:40:27;5.43;;;1.40;;
70800;SDS011;59616;52.170;5.386;2022-07-17T11:43:00;4.63;;;1.38;;
70800;SDS011;59616;52.170;5.386;2022-07-17T11:45:30;6.15;;;1.60;;
70800;SDS011;59616;52.170;5.386;2022-07-17T11:48:04;7.53;;;2.03;;
70800;SDS011;59616;52.170;5.386;2022-07-17T11:50:31;6.00;;;1.83;;
70800;SDS011;59616;52.170;5.386;2022-07-17T11:53:02;5.40;;;1.45;;
70800;SDS011;59616;52.170;5.386;2022-07-17T11:55:37;7.63;;;1.50;;
70800;SDS011;59616;52.170;5.386;2022-07-17T11:58:05;5.97;;;1.52;;
70800;SDS011;59616;52.170;5.386;2022-07-17T12:00:31;7.88;;;2.10;;
70800;SDS011;59616;52.170;5.386;2022-07-17T12:03:04;6.30;;;1.90;;
70800;SDS011;59616;52.170;5.386;2022-07-17T12:05:33;5.47;;;1.80;;
70800;SDS011;59616;52.170;5.386;2022-07-17T12:08:01;5.50;;;1.70;;
70800;SDS011;59616;52.170;5.386;2022-07-17T12:10:29;6.15;;;1.80;;
70800;SDS011;59616;52.170;5.386;2022-07-17T12:15:43;6.00;;;1.60;;
70800;SDS011;59616;52.170;5.386;2022-07-17T12:18:23;5.97;;;1.77;;
70800;SDS011;59616;52.170;5.386;2022-07-17T12:20:54;5.95;;;2.10;;
70800;SDS011;59616;52.170;5.386;2022-07-17T12:23:43;5.88;;;1.70;;
70800;SDS011;59616;52.170;5.386;2022-07-17T12:26:14;5.25;;;1.45;;
70800;SDS011;59616;52.170;5.386;2022-07-17T12:28:44;4.78;;;1.80;;
70800;SDS011;59616;52.170;5.386;2022-07-17T12:31:12;5.18;;;1.75;;
70800;SDS011;59616;52.170;5.386;2022-07-17T12:33:40;6.00;;;1.65;;
70800;SDS011;59616;52.170;5.386;2022-07-17T12:36:08;6.35;;;1.67;;
70800;SDS011;59616;52.170;5.386;2022-07-17T12:38:35;5.10;;;1.67;;
70800;SDS011;59616;52.170;5.386;2022-07-17T12:41:02;6.03;;;1.83;;
70800;SDS011;59616;52.170;5.386;2022-07-17T12:43:28;4.97;;;1.60;;
70800;SDS011;59616;52.170;5.386;2022-07-17T12:45:56;7.07;;;2.05;;
70800;SDS011;59616;52.170;5.386;2022-07-17T12:48:31;4.47;;;1.52;;
70800;SDS011;59616;52.170;5.386;2022-07-17T12:50:58;5.70;;;1.75;;
70800;SDS011;59616;52.170;5.386;2022-07-17T12:53:25;5.15;;;1.67;;
70800;SDS011;59616;52.170;5.386;2022-07-17T12:55:52;6.38;;;1.63;;
70800;SDS011;59616;52.170;5.386;2022-07-17T12:58:18;6.75;;;2.42;;
70800;SDS011;59616;52.170;5.386;2022-07-17T13:00:45;5.35;;;1.98;;
70800;SDS011;59616;52.170;5.386;2022-07-17T13:03:12;5.57;;;1.83;;
70800;SDS011;59616;52.170;5.386;2022-07-17T13:05:39;6.18;;;2.17;;
70800;SDS011;59616;52.170;5.386;2022-07-17T13:08:06;6.07;;;2.20;;
70800;SDS011;59616;52.170;5.386;2022-07-17T13:10:35;8.75;;;2.10;;
70800;SDS011;59616;52.170;5.386;2022-07-17T13:13:03;5.10;;;1.83;;
70800;SDS011;59616;52.170;5.386;2022-07-17T13:15:30;6.65;;;1.85;;
70800;SDS011;59616;52.170;5.386;2022-07-17T13:17:57;5.53;;;1.80;;
70800;SDS011;59616;52.170;5.386;2022-07-17T13:20:24;5.25;;;1.63;;
70800;SDS011;59616;52.170;5.386;2022-07-17T13:22:51;6.07;;;1.70;;
70800;SDS011;59616;52.170;5.386;2022-07-17T13:25:17;6.35;;;1.73;;
70800;SDS011;59616;52.170;5.386;2022-07-17T13:27:44;6.30;;;2.08;;
70800;SDS011;59616;52.170;5.386;2022-07-17T13:30:11;7.40;;;2.30;;
70800;SDS011;59616;52.170;5.386;2022-07-17T13:32:38;5.43;;;1.95;;
70800;SDS011;59616;52.170;5.386;2022-07-17T13:35:05;5.88;;;1.95;;
70800;SDS011;59616;52.170;5.386;2022-07-17T13:37:35;6.70;;;2.13;;
70800;SDS011;59616;52.170;5.386;2022-07-17T13:40:04;7.88;;;2.53;;
70800;SDS011;59616;52.170;5.386;2022-07-17T13:42:32;6.68;;;2.55;;
70800;SDS011;59616;52.170;5.386;2022-07-17T13:44:59;6.45;;;1.95;;
70800;SDS011;59616;52.170;5.386;2022-07-17T13:47:25;6.45;;;2.35;;
70800;SDS011;59616;52.170;5.386;2022-07-17T13:49:53;7.53;;;2.15;;
70800;SDS011;59616;52.170;5.386;2022-07-17T13:52:19;8.40;;;2.65;;
70800;SDS011;59616;52.170;5.386;2022-07-17T13:54:46;6.32;;;2.17;;
70800;SDS011;59616;52.170;5.386;2022-07-17T13:57:13;6.43;;;2.10;;
70800;SDS011;59616;52.170;5.386;2022-07-17T13:59:40;7.35;;;2.70;;
70800;SDS011;59616;52.170;5.386;2022-07-17T14:02:07;7.32;;;2.60;;
70800;SDS011;59616;52.170;5.386;2022-07-17T14:04:34;7.43;;;2.55;;
70800;SDS011;59616;52.170;5.386;2022-07-17T14:07:01;8.00;;;3.13;;
70800;SDS011;59616;52.170;5.386;2022-07-17T14:09:27;9.15;;;2.97;;
70800;SDS011;59616;52.170;5.386;2022-07-17T14:11:54;6.88;;;2.38;;
70800;SDS011;59616;52.170;5.386;2022-07-17T14:14:21;6.97;;;2.30;;
70800;SDS011;59616;52.170;5.386;2022-07-17T14:16:48;6.35;;;2.15;;
70800;SDS011;59616;52.170;5.386;2022-07-17T14:19:15;6.70;;;2.40;;
70800;SDS011;59616;52.170;5.386;2022-07-17T14:21:41;7.15;;;2.65;;
70800;SDS011;59616;52.170;5.386;2022-07-17T14:24:08;7.47;;;3.30;;
70800;SDS011;59616;52.170;5.386;2022-07-17T14:26:36;7.85;;;2.70;;
70800;SDS011;59616;52.170;5.386;2022-07-17T14:29:03;7.65;;;2.67;;
70800;SDS011;59616;52.170;5.386;2022-07-17T14:31:31;7.68;;;2.90;;
70800;SDS011;59616;52.170;5.386;2022-07-17T14:34:08;8.63;;;3.13;;
70800;SDS011;59616;52.170;5.386;2022-07-17T14:36:35;9.07;;;2.80;;
70800;SDS011;59616;52.170;5.386;2022-07-17T14:39:02;8.65;;;2.83;;
70800;SDS011;59616;52.170;5.386;2022-07-17T14:41:29;8.98;;;3.13;;
70800;SDS011;59616;52.170;5.386;2022-07-17T14:43:56;10.25;;;3.50;;
70800;SDS011;59616;52.170;5.386;2022-07-17T14:46:24;12.82;;;3.42;;
70800;SDS011;59616;52.170;5.386;2022-07-17T14:48:51;8.82;;;3.20;;
70800;SDS011;59616;52.170;5.386;2022-07-17T14:51:18;10.00;;;3.10;;
70800;SDS011;59616;52.170;5.386;2022-07-17T14:53:45;8.70;;;2.65;;
70800;SDS011;59616;52.170;5.386;2022-07-17T14:56:11;8.30;;;2.70;;
70800;SDS011;59616;52.170;5.386;2022-07-17T14:58:38;6.72;;;2.70;;
70800;SDS011;59616;52.170;5.386;2022-07-17T15:01:05;8.32;;;2.88;;
70800;SDS011;59616;52.170;5.386;2022-07-17T15:03:33;7.05;;;2.63;;
70800;SDS011;59616;52.170;5.386;2022-07-17T15:06:00;9.13;;;2.80;;
70800;SDS011;59616;52.170;5.386;2022-07-17T15:08:27;7.15;;;2.50;;
70800;SDS011;59616;52.170;5.386;2022-07-17T15:10:54;6.85;;;2.65;;
70800;SDS011;59616;52.170;5.386;2022-07-17T15:13:21;7.38;;;2.65;;
70800;SDS011;59616;52.170;5.386;2022-07-17T15:15:48;8.43;;;3.17;;
70800;SDS011;59616;52.170;5.386;2022-07-17T15:18:15;7.95;;;2.90;;
70800;SDS011;59616;52.170;5.386;2022-07-17T15:20:42;8.98;;;3.42;;
70800;SDS011;59616;52.170;5.386;2022-07-17T15:23:09;9.70;;;3.50;;
70800;SDS011;59616;52.170;5.386;2022-07-17T15:25:36;10.48;;;3.72;;
70800;SDS011;59616;52.170;5.386;2022-07-17T15:28:03;9.15;;;3.70;;
70800;SDS011;59616;52.170;5.386;2022-07-17T15:30:30;10.05;;;4.18;;
70800;SDS011;59616;52.170;5.386;2022-07-17T15:32:57;10.40;;;4.13;;
70800;SDS011;59616;52.170;5.386;2022-07-17T15:35:23;11.60;;;4.80;;